Time;durP1;ratioP1;P1;durP2;ratioP2;P2;SDS_P1;SDS_P2;PMS_P1;PMS_P2;Temp;Humidity;BMP_temperature;BMP_pressure;BME280_temperature;BME280_humidity;BME280_pressure;Samples;Min_cycle;Max_cycle;Signal;HPM_P1;HPM_P2
2022/08/24 00:00:30;;;;;;;;;;;21.10;73.30;;;;;;5043310;28;86393;-38
2022/08/24 00:02:55;;;;;;;;;;;21.10;73.30;;;;;;5046521;28;87140;-38
2022/08/24 00:05:21;;;;;;;;;;;21.10;73.30;;;;;;5043061;28;89506;-38
2022/08/24 00:07:48;;;;;;;;;;;21.10;73.30;;;;;;5042771;28;87990;-38
2022/08/24 00:10:13;;;;;;;;;;;21.00;73.30;;;;;;5043315;27;88299;-38
2022/08/24 00:12:39;;;;;;;;;;;21.00;73.30;;;;;;5042978;28;87964;-38
2022/08/24 00:15:06;;;;;;;;;;;21.00;73.40;;;;;;5043056;28;87111;-38
2022/08/24 00:17:33;;;;;;;;;;;21.00;73.20;;;;;;5042982;28;89531;-38
2022/08/24 00:19:59;;;;;;;;;;;21.00;73.30;;;;;;5042931;28;87199;-38
2022/08/24 00:22:24;;;;;;;;;;;21.00;73.30;;;;;;5042259;28;87120;-38
2022/08/24 00:24:50;;;;;;;;;;;21.00;73.30;;;;;;5046273;27;87305;-38
2022/08/24 00:27:15;;;;;;;;;;;21.00;73.30;;;;;;5043162;28;87117;-38
2022/08/24 00:29:41;;;;;;;;;;;21.00;73.40;;;;;;5043161;28;87002;-38
2022/08/24 00:32:06;;;;;;;;;;;21.00;73.30;;;;;;5041812;28;90253;-38
2022/08/24 00:34:33;;;;;;;;;;;21.00;73.30;;;;;;5042785;28;86991;-38
2022/08/24 00:36:58;;;;;;;;;;;21.00;73.30;;;;;;5043034;28;87883;-39
2022/08/24 00:39:24;;;;;;;;;;;21.00;73.40;;;;;;5042592;28;87995;-38
2022/08/24 00:41:50;;;;;;;;;;;21.00;73.30;;;;;;5042913;28;86998;-38
2022/08/24 00:44:16;;;;;;;;;;;21.00;73.30;;;;;;5042816;27;88915;-38
2022/08/24 00:47:02;;;;;;;;;;;21.00;73.40;;;;;;5045234;28;89107;-38
2022/08/24 00:49:36;;;;;;;;;;;21.00;73.30;;;;;;5043223;28;87486;-38
2022/08/24 00:52:06;;;;;;;;;;;21.00;73.30;;;;;;5041802;28;88741;-38
2022/08/24 00:54:35;;;;;;;;;;;20.90;73.50;;;;;;5042677;28;87110;-38
2022/08/24 00:57:03;;;;;;;;;;;21.00;73.30;;;;;;5041888;28;87915;-38
2022/08/24 00:59:31;;;;;;;;;;;20.90;73.30;;;;;;5041969;28;89274;-39
2022/08/24 01:01:57;;;;;;;;;;;20.90;73.30;;;;;;5042562;28;87030;-38
2022/08/24 01:04:28;;;;;;;;;;;20.90;73.30;;;;;;5043081;27;88031;-38
2022/08/24 01:06:55;;;;;;;;;;;20.90;73.40;;;;;;5045768;28;88301;-38
2022/08/24 01:09:21;;;;;;;;;;;20.90;73.30;;;;;;5049105;28;87098;-38
2022/08/24 01:11:47;;;;;;;;;;;20.90;73.40;;;;;;5046100;28;88019;-38
2022/08/24 01:14:12;;;;;;;;;;;20.90;73.30;;;;;;5046338;28;86295;-38
2022/08/24 01:19:31;;;;;;;;;;;20.90;73.30;;;;;;5045906;28;87292;-39
2022/08/24 01:22:00;;;;;;;;;;;20.90;73.40;;;;;;5044613;28;88161;-37
2022/08/24 01:24:25;;;;;;;;;;;20.90;73.50;;;;;;5045962;28;88395;-38
2022/08/24 01:26:51;;;;;;;;;;;20.90;73.40;;;;;;5045588;28;88348;-38
2022/08/24 01:29:27;;;;;;;;;;;20.90;73.40;;;;;;5045979;28;86994;-38
2022/08/24 01:31:53;;;;;;;;;;;20.80;73.30;;;;;;5048574;27;87385;-38
2022/08/24 01:34:18;;;;;;;;;;;20.80;73.30;;;;;;5045798;28;87161;-38
2022/08/24 01:36:46;;;;;;;;;;;20.90;73.40;;;;;;5045711;28;87039;-38
2022/08/24 01:39:17;;;;;;;;;;;20.90;73.40;;;;;;5045737;28;87557;-38
2022/08/24 01:41:43;;;;;;;;;;;20.80;73.30;;;;;;5045911;28;87505;-38
2022/08/24 01:44:09;;;;;;;;;;;20.80;73.30;;;;;;5045886;28;87590;-38
2022/08/24 01:46:34;;;;;;;;;;;20.80;73.30;;;;;;5044412;28;88840;-39
2022/08/24 01:49:00;;;;;;;;;;;20.80;73.40;;;;;;5045562;28;87105;-38
2022/08/24 01:51:30;;;;;;;;;;;20.80;73.50;;;;;;5048375;27;87367;-38
2022/08/24 01:53:55;;;;;;;;;;;20.80;73.30;;;;;;5045587;28;87157;-38
2022/08/24 01:56:21;;;;;;;;;;;20.80;73.30;;;;;;5045541;28;87543;-38
2022/08/24 01:58:46;;;;;;;;;;;20.80;73.40;;;;;;5045048;28;88152;-37
2022/08/24 02:01:13;;;;;;;;;;;20.80;73.90;;;;;;5045088;28;87091;-39
2022/08/24 02:03:38;;;;;;;;;;;20.80;73.30;;;;;;5045874;28;86646;-38
2022/08/24 02:06:04;;;;;;;;;;;20.80;73.20;;;;;;5045032;28;87920;-38
2022/08/24 02:08:31;;;;;;;;;;;20.70;73.30;;;;;;5045470;28;87071;-38
2022/08/24 02:10:56;;;;;;;;;;;20.80;73.30;;;;;;5044714;28;88081;-38
2022/08/24 02:13:22;;;;;;;;;;;20.70;73.30;;;;;;5047813;28;87077;-38
2022/08/24 02:15:47;;;;;;;;;;;20.70;73.30;;;;;;5045228;27;86935;-38
2022/08/24 02:18:13;;;;;;;;;;;20.70;73.30;;;;;;5044594;28;89214;-38
2022/08/24 02:20:38;;;;;;;;;;;20.70;73.30;;;;;;5045151;28;87568;-38
2022/08/24 02:23:05;;;;;;;;;;;20.70;73.40;;;;;;5044869;28;87368;-38
2022/08/24 02:25:31;;;;;;;;;;;20.70;73.30;;;;;;5044855;28;87067;-37
2022/08/24 02:27:58;;;;;;;;;;;20.70;73.30;;;;;;5045281;28;86359;-38
2022/08/24 02:30:24;;;;;;;;;;;20.70;73.20;;;;;;5044950;27;87069;-38
2022/08/24 02:32:50;;;;;;;;;;;20.70;73.40;;;;;;5044584;28;87958;-38
2022/08/24 02:35:16;;;;;;;;;;;20.70;73.30;;;;;;5047478;28;88007;-38
2022/08/24 02:37:41;;;;;;;;;;;20.60;73.30;;;;;;5044617;28;88365;-38
2022/08/24 02:40:08;;;;;;;;;;;20.60;73.20;;;;;;5044517;28;87168;-38
2022/08/24 02:42:34;;;;;;;;;;;20.70;73.30;;;;;;5044522;27;89002;-38
2022/08/24 02:45:00;;;;;;;;;;;20.60;73.30;;;;;;5043842;28;89676;-37
2022/08/24 02:47:26;;;;;;;;;;;20.60;73.30;;;;;;5044358;28;87093;-37
2022/08/24 02:49:51;;;;;;;;;;;20.60;73.40;;;;;;5044744;28;87392;-38
2022/08/24 02:52:17;;;;;;;;;;;20.60;73.30;;;;;;5044770;28;87512;-38
2022/08/24 02:54:42;;;;;;;;;;;20.60;73.30;;;;;;5044757;28;87006;-38
2022/08/24 02:57:08;;;;;;;;;;;20.60;73.30;;;;;;5047088;27;88146;-38
2022/08/24 02:59:33;;;;;;;;;;;20.60;73.20;;;;;;5043350;28;87975;-38
2022/08/24 03:01:59;;;;;;;;;;;20.60;73.30;;;;;;5044378;27;89720;-38
2022/08/24 03:04:24;;;;;;;;;;;20.60;73.40;;;;;;5043910;28;88182;-38
2022/08/24 03:06:50;;;;;;;;;;;20.60;73.30;;;;;;5044606;28;87102;-37
2022/08/24 03:09:16;;;;;;;;;;;20.60;73.50;;;;;;5044244;27;87488;-38
2022/08/24 03:11:42;;;;;;;;;;;20.60;73.40;;;;;;5043965;28;88002;-37
2022/08/24 03:14:07;;;;;;;;;;;20.60;73.50;;;;;;5044095;28;87012;-38
2022/08/24 03:16:33;;;;;;;;;;;20.60;73.50;;;;;;5044740;27;86530;-38
2022/08/24 03:18:58;;;;;;;;;;;20.60;73.30;;;;;;5046822;28;87881;-37
2022/08/24 03:21:24;;;;;;;;;;;20.50;73.40;;;;;;5043594;27;87465;-38
2022/08/24 03:23:50;;;;;;;;;;;20.60;73.50;;;;;;5043217;28;88065;-38
2022/08/24 03:26:16;;;;;;;;;;;20.60;73.50;;;;;;5043968;28;87134;-38
2022/08/24 03:28:41;;;;;;;;;;;20.50;73.50;;;;;;5043178;27;87562;-38
2022/08/24 03:31:07;;;;;;;;;;;20.50;73.40;;;;;;5043694;28;88173;-38
2022/08/24 03:33:32;;;;;;;;;;;20.50;73.30;;;;;;5044134;28;87110;-38
2022/08/24 03:35:58;;;;;;;;;;;20.50;73.40;;;;;;5043929;28;87038;-38
2022/08/24 03:38:24;;;;;;;;;;;20.50;73.50;;;;;;5043722;28;88172;-38
2022/08/24 03:40:49;;;;;;;;;;;20.50;73.50;;;;;;5046777;28;86281;-38
2022/08/24 03:46:01;;;;;;;;;;;20.50;73.90;;;;;;5041350;28;87019;-38
2022/08/24 03:48:27;;;;;;;;;;;20.50;73.30;;;;;;5042816;27;88949;-38
2022/08/24 03:50:53;;;;;;;;;;;20.50;73.40;;;;;;5043255;28;88108;-38
2022/08/24 03:53:19;;;;;;;;;;;20.50;73.40;;;;;;5043749;28;87622;-37
2022/08/24 03:55:44;;;;;;;;;;;20.50;73.30;;;;;;5043486;28;87492;-38
2022/08/24 03:58:10;;;;;;;;;;;20.50;73.30;;;;;;5043120;28;88261;-38
2022/08/24 04:00:36;;;;;;;;;;;20.40;73.20;;;;;;5046118;28;87194;-38
2022/08/24 04:03:01;;;;;;;;;;;20.40;73.30;;;;;;5043174;28;87940;-38
2022/08/24 04:05:27;;;;;;;;;;;20.40;73.30;;;;;;5043940;28;86411;-38
2022/08/24 04:07:53;;;;;;;;;;;20.40;73.30;;;;;;5043618;28;88025;-38
2022/08/24 04:10:18;;;;;;;;;;;20.40;73.30;;;;;;5043006;28;88116;-38
2022/08/24 04:12:44;;;;;;;;;;;20.40;73.40;;;;;;5042202;28;88129;-38
2022/08/24 04:15:10;;;;;;;;;;;20.40;73.30;;;;;;5043203;27;88094;-39
2022/08/24 04:17:36;;;;;;;;;;;20.40;73.30;;;;;;5042827;28;89461;-38
2022/08/24 04:20:01;;;;;;;;;;;20.40;73.30;;;;;;5043019;28;87004;-39
2022/08/24 04:22:28;;;;;;;;;;;20.40;73.40;;;;;;5045148;27;88817;-38
2022/08/24 04:24:54;;;;;;;;;;;20.40;73.30;;;;;;5043010;28;87090;-38
2022/08/24 04:27:20;;;;;;;;;;;20.40;74.00;;;;;;5042985;28;87407;-38
2022/08/24 04:29:45;;;;;;;;;;;20.40;73.40;;;;;;5043089;28;87039;-37
2022/08/24 04:32:14;;;;;;;;;;;20.40;73.40;;;;;;5043043;28;87044;-38
2022/08/24 04:34:39;;;;;;;;;;;20.40;73.30;;;;;;5042772;27;88919;-38
2022/08/24 04:37:05;;;;;;;;;;;20.30;73.40;;;;;;5042024;28;89058;-38
2022/08/24 04:39:32;;;;;;;;;;;20.30;73.50;;;;;;5042110;27;86977;-37
2022/08/24 04:41:58;;;;;;;;;;;20.30;73.30;;;;;;5042549;28;87912;-38
2022/08/24 04:44:24;;;;;;;;;;;20.30;73.30;;;;;;5045131;28;89513;-38
2022/08/24 04:46:49;;;;;;;;;;;20.30;73.30;;;;;;5042681;27;87428;-38
2022/08/24 04:49:15;;;;;;;;;;;20.30;73.20;;;;;;5042557;28;88243;-38
2022/08/24 04:51:41;;;;;;;;;;;20.40;73.40;;;;;;5042787;28;87118;-38
2022/08/24 04:54:07;;;;;;;;;;;20.30;73.20;;;;;;5043494;28;87572;-37
2022/08/24 04:56:32;;;;;;;;;;;20.40;73.20;;;;;;5042215;28;88001;-37
2022/08/24 04:58:58;;;;;;;;;;;20.30;73.20;;;;;;5042681;28;87016;-38
2022/08/24 05:01:26;;;;;;;;;;;20.30;73.20;;;;;;5041911;27;88089;-38
2022/08/24 05:03:53;;;;;;;;;;;20.30;73.30;;;;;;5042057;28;87787;-37
2022/08/24 05:06:19;;;;;;;;;;;20.30;73.30;;;;;;5045379;28;87100;-38
2022/08/24 05:08:46;;;;;;;;;;;20.40;73.20;;;;;;5041966;28;89869;-37
2022/08/24 05:11:12;;;;;;;;;;;20.30;73.20;;;;;;5042454;28;86981;-38
2022/08/24 05:13:38;;;;;;;;;;;20.30;73.30;;;;;;5042563;27;88639;-37
2022/08/24 05:16:08;;;;;;;;;;;20.30;73.20;;;;;;5042159;28;88152;-37
2022/08/24 05:18:34;;;;;;;;;;;20.30;73.20;;;;;;5043066;28;86246;-37
2022/08/24 05:20:59;;;;;;;;;;;20.30;73.20;;;;;;5042508;28;87382;-38
2022/08/24 05:23:25;;;;;;;;;;;20.30;73.20;;;;;;5042293;28;88123;-38
2022/08/24 05:25:51;;;;;;;;;;;20.30;73.20;;;;;;5041715;28;88012;-38
2022/08/24 05:28:16;;;;;;;;;;;20.30;73.10;;;;;;5044934;28;88457;-37
2022/08/24 05:30:42;;;;;;;;;;;20.30;73.20;;;;;;5042565;28;86822;-38
2022/08/24 05:33:08;;;;;;;;;;;20.30;73.20;;;;;;5042634;27;86915;-38
2022/08/24 05:35:37;;;;;;;;;;;20.30;73.30;;;;;;5041807;28;88483;-38
2022/08/24 05:38:03;;;;;;;;;;;20.30;73.10;;;;;;5042304;28;87428;-38
2022/08/24 05:40:28;;;;;;;;;;;20.30;73.30;;;;;;5042092;27;87523;-38
2022/08/24 05:42:54;;;;;;;;;;;20.30;73.30;;;;;;5042360;28;87275;-38
2022/08/24 05:45:20;;;;;;;;;;;20.30;73.20;;;;;;5042355;28;87078;-38
2022/08/24 05:47:45;;;;;;;;;;;20.30;73.30;;;;;;5044486;27;88757;-38
2022/08/24 05:50:11;;;;;;;;;;;20.30;73.20;;;;;;5042041;27;87974;-37
2022/08/24 05:52:37;;;;;;;;;;;20.30;73.10;;;;;;5045522;27;89656;-37
2022/08/24 05:55:03;;;;;;;;;;;20.30;73.10;;;;;;5045236;28;88096;-37
2022/08/24 05:57:32;;;;;;;;;;;20.40;73.20;;;;;;5045437;28;87171;-38
2022/08/24 05:59:57;;;;;;;;;;;20.40;73.10;;;;;;5045143;27;88817;-38
2022/08/24 06:02:23;;;;;;;;;;;20.40;73.20;;;;;;5045220;28;88372;-38
2022/08/24 06:04:48;;;;;;;;;;;20.40;73.00;;;;;;5045281;28;87107;-38
2022/08/24 06:07:14;;;;;;;;;;;20.40;72.90;;;;;;5046060;28;87581;-38
2022/08/24 06:09:40;;;;;;;;;;;20.40;72.80;;;;;;5047408;28;88275;-38
2022/08/24 06:12:06;;;;;;;;;;;20.40;72.90;;;;;;5045197;27;86846;-38
2022/08/24 06:14:33;;;;;;;;;;;20.40;72.80;;;;;;5044359;28;88945;-38
2022/08/24 06:16:58;;;;;;;;;;;20.40;72.60;;;;;;5044953;28;87108;-37
2022/08/24 06:19:25;;;;;;;;;;;20.40;72.80;;;;;;5045176;27;86843;-37
2022/08/24 06:21:52;;;;;;;;;;;20.40;72.80;;;;;;5044142;28;89330;-38
2022/08/24 06:24:18;;;;;;;;;;;20.40;73.00;;;;;;5044797;28;86963;-38
2022/08/24 06:29:28;;;;;;;;;;;20.40;72.60;;;;;;5042701;28;87187;-38
2022/08/24 06:31:54;;;;;;;;;;;20.40;72.60;;;;;;5048293;28;86341;-37
2022/08/24 06:34:20;;;;;;;;;;;20.40;72.50;;;;;;5044728;28;87925;-38
2022/08/24 06:36:46;;;;;;;;;;;20.40;72.90;;;;;;5045016;28;86940;-38
2022/08/24 06:39:12;;;;;;;;;;;20.40;72.60;;;;;;5043742;27;88818;-37
2022/08/24 06:41:38;;;;;;;;;;;20.40;72.60;;;;;;5044346;28;88054;-38
2022/08/24 06:44:04;;;;;;;;;;;20.50;72.40;;;;;;5044697;28;86957;-38
2022/08/24 06:46:29;;;;;;;;;;;20.50;72.60;;;;;;5044738;28;87390;-38
2022/08/24 06:48:55;;;;;;;;;;;20.40;72.50;;;;;;5043943;28;89345;-37
2022/08/24 06:51:21;;;;;;;;;;;20.50;72.60;;;;;;5044452;28;87028;-39
2022/08/24 06:53:47;;;;;;;;;;;20.40;73.10;;;;;;5047063;27;87334;-38
2022/08/24 06:56:13;;;;;;;;;;;20.40;72.70;;;;;;5045072;28;86346;-38
2022/08/24 06:58:39;;;;;;;;;;;20.40;72.70;;;;;;5044558;27;87916;-37
2022/08/24 07:01:08;;;;;;;;;;;20.40;72.40;;;;;;5043813;28;88071;-38
2022/08/24 07:03:34;;;;;;;;;;;20.40;72.80;;;;;;5042702;28;87921;-38
2022/08/24 07:06:01;;;;;;;;;;;20.50;72.40;;;;;;5044449;27;87955;-38
2022/08/24 07:08:26;;;;;;;;;;;20.40;72.60;;;;;;5044062;28;87940;-38
2022/08/24 07:10:52;;;;;;;;;;;20.50;72.80;;;;;;5044225;28;87081;-38
2022/08/24 07:13:17;;;;;;;;;;;20.50;72.50;;;;;;5044588;28;87715;-38
2022/08/24 07:15:43;;;;;;;;;;;20.50;72.50;;;;;;5046771;28;88154;-38
2022/08/24 07:18:12;;;;;;;;;;;20.50;72.90;;;;;;5044279;28;87517;-37
2022/08/24 07:20:38;;;;;;;;;;;20.50;73.30;;;;;;5044289;28;87607;-38
2022/08/24 07:23:04;;;;;;;;;;;20.50;72.60;;;;;;5043537;28;87226;-38
2022/08/24 07:25:30;;;;;;;;;;;20.50;72.70;;;;;;5044156;27;87444;-38
2022/08/24 07:27:56;;;;;;;;;;;20.50;72.70;;;;;;5043030;28;88927;-38
2022/08/24 07:30:21;;;;;;;;;;;20.40;72.40;;;;;;5043993;28;87017;-38
2022/08/24 07:32:47;;;;;;;;;;;20.50;72.60;;;;;;5044236;27;87403;-38
2022/08/24 07:35:12;;;;;;;;;;;20.50;72.70;;;;;;5043701;28;88063;-37
2022/08/24 07:37:38;;;;;;;;;;;20.50;72.50;;;;;;5046449;28;87127;-38
2022/08/24 07:40:04;;;;;;;;;;;20.50;72.70;;;;;;5041960;28;91306;-38
2022/08/24 07:42:29;;;;;;;;;;;20.50;72.30;;;;;;5043830;28;87130;-38
2022/08/24 07:44:55;;;;;;;;;;;20.50;72.50;;;;;;5044391;28;87455;-38
2022/08/24 07:47:20;;;;;;;;;;;20.50;72.50;;;;;;5043456;28;87401;-38
2022/08/24 07:49:46;;;;;;;;;;;20.50;72.80;;;;;;5043685;28;86960;-38
2022/08/24 07:52:12;;;;;;;;;;;20.50;72.50;;;;;;5042798;27;88978;-38
2022/08/24 07:54:38;;;;;;;;;;;20.50;72.40;;;;;;5043261;28;89302;-38
2022/08/24 07:57:05;;;;;;;;;;;20.60;72.60;;;;;;5046343;28;87244;-37
2022/08/24 07:59:31;;;;;;;;;;;20.60;72.50;;;;;;5043127;28;87957;-38
2022/08/24 08:01:57;;;;;;;;;;;20.60;72.60;;;;;;5043226;28;87134;-38
2022/08/24 08:04:24;;;;;;;;;;;20.60;72.50;;;;;;5043614;28;87279;-37
2022/08/24 08:06:49;;;;;;;;;;;20.60;72.70;;;;;;5042698;28;89486;-38
2022/08/24 08:09:15;;;;;;;;;;;20.60;72.50;;;;;;5043912;28;86365;-38
2022/08/24 08:11:40;;;;;;;;;;;20.60;72.30;;;;;;5043537;27;87177;-37
2022/08/24 08:14:06;;;;;;;;;;;20.60;73.10;;;;;;5042781;27;88238;-37
2022/08/24 08:16:32;;;;;;;;;;;20.60;72.60;;;;;;5042536;28;87925;-38
2022/08/24 08:18:57;;;;;;;;;;;20.60;72.70;;;;;;5046005;28;88577;-38
2022/08/24 08:24:17;;;;;;;;;;;20.60;73.00;;;;;;5043541;28;86944;-38
2022/08/24 08:26:43;;;;;;;;;;;20.60;73.10;;;;;;5042778;28;88530;-38
2022/08/24 08:29:09;;;;;;;;;;;20.60;73.20;;;;;;5043202;28;87355;-38
2022/08/24 08:31:35;;;;;;;;;;;20.60;72.80;;;;;;5043009;27;88987;-38
2022/08/24 08:34:01;;;;;;;;;;;20.60;73.50;;;;;;5042983;28;87294;-37
2022/08/24 08:36:26;;;;;;;;;;;20.60;73.00;;;;;;5043031;28;87103;-38
2022/08/24 08:38:52;;;;;;;;;;;20.60;73.20;;;;;;5043337;27;87301;-38
2022/08/24 08:41:17;;;;;;;;;;;20.60;72.80;;;;;;5044802;28;88898;-37
2022/08/24 08:43:45;;;;;;;;;;;20.60;73.10;;;;;;5043005;28;88317;-37
2022/08/24 08:46:19;;;;;;;;;;;20.60;73.50;;;;;;5042299;28;88576;-38
2022/08/24 08:49:04;;;;;;;;;;;20.60;73.00;;;;;;5042778;28;88473;-37
2022/08/24 08:51:48;;;;;;;;;;;20.60;73.10;;;;;;5043039;27;86976;-38
2022/08/24 08:54:32;;;;;;;;;;;20.60;73.60;;;;;;5042278;27;89443;-37
2022/08/24 08:56:58;;;;;;;;;;;20.60;73.30;;;;;;5042433;28;87230;-38
2022/08/24 08:59:23;;;;;;;;;;;20.70;73.30;;;;;;5043545;27;87395;-37
2022/08/24 09:01:58;;;;;;;;;;;20.70;73.00;;;;;;5042265;28;88162;-38
2022/08/24 09:04:42;;;;;;;;;;;20.70;73.20;;;;;;5045445;28;87105;-38
2022/08/24 09:07:18;;;;;;;;;;;20.70;73.40;;;;;;5041749;27;88941;-38
2022/08/24 09:09:47;;;;;;;;;;;20.70;73.00;;;;;;5042175;28;87138;-39
2022/08/24 09:12:31;;;;;;;;;;;20.80;73.20;;;;;;5042569;28;87943;-37
2022/08/24 09:15:19;;;;;;;;;;;20.80;73.60;;;;;;5042782;27;87382;-38
2022/08/24 09:17:54;;;;;;;;;;;20.80;73.30;;;;;;5022086;28;87161;-38
2022/08/24 09:20:22;;;;;;;;;;;20.80;73.30;;;;;;5042602;28;87368;-38
2022/08/24 09:23:01;;;;;;;;;;;20.80;73.30;;;;;;5041476;28;89313;-38
2022/08/24 09:25:30;;;;;;;;;;;20.80;72.50;;;;;;5044034;27;86303;-38
2022/08/24 09:28:13;;;;;;;;;;;20.80;73.50;;;;;;5048526;27;87105;-38
2022/08/24 09:31:02;;;;;;;;;;;20.90;73.00;;;;;;5045619;28;87058;-38
2022/08/24 09:33:48;;;;;;;;;;;20.90;73.00;;;;;;5045378;27;88999;-38
2022/08/24 09:36:18;;;;;;;;;;;20.90;72.70;;;;;;5022988;28;88264;-39
2022/08/24 09:38:50;;;;;;;;;;;20.90;72.30;;;;;;5045601;28;87002;-38
2022/08/24 09:41:40;;;;;;;;;;;21.00;73.00;;;;;;5045913;28;87451;-38
2022/08/24 09:44:24;;;;;;;;;;;20.90;72.50;;;;;;5045530;28;88195;-38
2022/08/24 09:46:59;;;;;;;;;;;20.90;72.90;;;;;;5045608;27;87095;-37
2022/08/24 09:49:39;;;;;;;;;;;20.90;72.50;;;;;;5044565;28;87511;-38
2022/08/24 09:52:17;;;;;;;;;;;20.80;73.50;;;;;;5048830;28;87053;-38
2022/08/24 09:54:45;;;;;;;;;;;20.80;74.30;;;;;;5045781;28;86884;-38
2022/08/24 09:57:27;;;;;;;;;;;20.90;74.40;;;;;;5045168;28;88272;-38
2022/08/24 10:00:14;;;;;;;;;;;20.90;74.50;;;;;;5044701;28;88220;-39
2022/08/24 10:02:52;;;;;;;;;;;20.90;73.40;;;;;;5045570;27;88370;-38
2022/08/24 10:05:47;;;;;;;;;;;21.00;73.20;;;;;;5044856;28;88029;-37
2022/08/24 10:08:18;;;;;;;;;;;21.00;73.60;;;;;;5034645;28;87056;-42
2022/08/24 10:10:57;;;;;;;;;;;21.10;73.00;;;;;;5045235;28;87423;-39
2022/08/24 10:13:32;;;;;;;;;;;21.20;73.10;;;;;;5047965;28;87483;-40
2022/08/24 10:16:01;;;;;;;;;;;21.20;73.30;;;;;;5045521;28;87451;-39
2022/08/24 10:18:36;;;;;;;;;;;21.30;73.00;;;;;;5045380;28;87253;-37
2022/08/24 10:21:05;;;;;;;;;;;21.30;72.30;;;;;;5044984;28;87097;-37
2022/08/24 10:23:39;;;;;;;;;;;21.40;70.80;;;;;;5045474;28;87323;-36
2022/08/24 10:26:15;;;;;;;;;;;21.40;70.70;;;;;;5044086;28;89343;-37
2022/08/24 10:28:44;;;;;;;;;;;21.50;71.70;;;;;;5045089;28;87028;-38
2022/08/24 10:31:25;;;;;;;;;;;21.50;71.70;;;;;;5044822;28;87314;-38
2022/08/24 10:34:09;;;;;;;;;;;21.50;71.00;;;;;;5044676;28;87164;-38
2022/08/24 10:36:38;;;;;;;;;;;21.60;70.10;;;;;;5045419;27;87132;-39
2022/08/24 10:42:06;;;;;;;;;;;22.00;67.90;;;;;;5044982;28;87085;-43
2022/08/24 10:44:35;;;;;;;;;;;22.20;66.40;;;;;;5045630;27;87398;-41
2022/08/24 10:47:05;;;;;;;;;;;22.30;66.40;;;;;;5044646;28;87933;-39
2022/08/24 10:49:33;;;;;;;;;;;22.10;67.40;;;;;;5044799;28;87017;-39
2022/08/24 10:52:02;;;;;;;;;;;22.00;67.90;;;;;;5043759;27;88856;-39
2022/08/24 10:54:31;;;;;;;;;;;22.00;68.40;;;;;;5044111;28;88257;-38
2022/08/24 10:57:04;;;;;;;;;;;21.90;68.90;;;;;;5044455;28;87120;-39
2022/08/24 10:59:39;;;;;;;;;;;21.90;69.00;;;;;;5047087;27;88875;-39
2022/08/24 11:02:07;;;;;;;;;;;21.90;68.60;;;;;;5044252;28;87150;-39
2022/08/24 11:04:34;;;;;;;;;;;21.90;68.80;;;;;;5044352;27;90737;-40
2022/08/24 11:07:09;;;;;;;;;;;22.00;68.10;;;;;;5043846;28;89807;-40
2022/08/24 11:09:42;;;;;;;;;;;22.00;67.60;;;;;;5044891;28;86262;-40
2022/08/24 11:12:16;;;;;;;;;;;22.00;68.10;;;;;;5044533;28;87452;-40
2022/08/24 11:14:46;;;;;;;;;;;22.00;68.50;;;;;;5043966;28;89852;-40
2022/08/24 11:17:13;;;;;;;;;;;22.10;68.70;;;;;;5043513;28;87986;-40
2022/08/24 11:19:39;;;;;;;;;;;22.20;67.90;;;;;;5044251;28;88610;-37
2022/08/24 11:22:20;;;;;;;;;;;22.20;68.30;;;;;;5046184;28;88075;-38
2022/08/24 11:24:47;;;;;;;;;;;22.20;68.50;;;;;;5044502;28;87558;-38
2022/08/24 11:27:15;;;;;;;;;;;22.20;68.40;;;;;;5043827;28;88207;-38
2022/08/24 11:29:50;;;;;;;;;;;22.30;69.20;;;;;;5043731;28;87015;-39
2022/08/24 11:32:31;;;;;;;;;;;22.30;69.10;;;;;;5044117;28;86990;-39
2022/08/24 11:35:05;;;;;;;;;;;22.30;68.60;;;;;;5044201;28;87201;-40
2022/08/24 11:37:32;;;;;;;;;;;22.20;69.20;;;;;;5043844;28;87003;-38
2022/08/24 11:39:58;;;;;;;;;;;22.30;68.70;;;;;;5043724;27;88013;-39
2022/08/24 11:42:38;;;;;;;;;;;22.30;69.20;;;;;;5042897;28;89127;-40
2022/08/24 11:45:19;;;;;;;;;;;22.30;69.20;;;;;;5046908;28;87129;-41
2022/08/24 11:47:51;;;;;;;;;;;22.30;69.00;;;;;;5042909;27;89355;-38
2022/08/24 11:50:33;;;;;;;;;;;22.40;68.80;;;;;;5043509;28;86966;-38
2022/08/24 11:53:02;;;;;;;;;;;22.40;68.90;;;;;;5043485;27;87473;-37
2022/08/24 11:55:35;;;;;;;;;;;22.40;68.50;;;;;;5043333;28;88027;-38
2022/08/24 11:58:19;;;;;;;;;;;22.40;67.20;;;;;;5043178;28;87168;-39
2022/08/24 12:00:52;;;;;;;;;;;22.40;67.20;;;;;;5043892;27;87518;-42
2022/08/24 12:03:36;;;;;;;;;;;22.50;68.20;;;;;;5043241;28;88020;-41
2022/08/24 12:06:09;;;;;;;;;;;22.50;67.70;;;;;;5043661;27;87122;-45
2022/08/24 12:08:35;;;;;;;;;;;22.60;67.50;;;;;;5045373;28;89102;-39
2022/08/24 12:11:03;;;;;;;;;;;22.50;68.00;;;;;;5043336;28;87095;-41
2022/08/24 12:13:32;;;;;;;;;;;22.50;68.00;;;;;;5043307;27;86983;-41
2022/08/24 12:16:20;;;;;;;;;;;22.50;68.60;;;;;;5042651;28;87993;-39
2022/08/24 12:18:55;;;;;;;;;;;22.50;68.90;;;;;;5037278;28;87046;-38
2022/08/24 12:21:24;;;;;;;;;;;22.60;68.80;;;;;;5043156;27;86954;-39
2022/08/24 12:23:57;;;;;;;;;;;22.60;69.00;;;;;;5042603;28;89377;-43
2022/08/24 12:29:20;;;;;;;;;;;22.70;68.50;;;;;;5046106;27;86953;-40
2022/08/24 12:31:49;;;;;;;;;;;22.70;69.00;;;;;;5043031;28;87044;-41
2022/08/24 12:34:33;;;;;;;;;;;22.70;68.90;;;;;;5042482;27;87913;-39
2022/08/24 12:37:08;;;;;;;;;;;22.70;69.00;;;;;;5042698;27;88136;-40
2022/08/24 12:39:35;;;;;;;;;;;22.70;69.20;;;;;;5042992;28;87114;-39
2022/08/24 12:42:01;;;;;;;;;;;22.70;69.10;;;;;;5042835;28;87831;-40
2022/08/24 12:44:48;;;;;;;;;;;22.70;68.90;;;;;;5042835;28;87379;-41
2022/08/24 12:47:22;;;;;;;;;;;22.60;69.10;;;;;;5043099;28;86929;-39
2022/08/24 12:49:52;;;;;;;;;;;22.70;69.20;;;;;;5040966;28;87412;-40
2022/08/24 12:52:26;;;;;;;;;;;22.70;69.10;;;;;;5043658;28;87375;-40
2022/08/24 12:54:58;;;;;;;;;;;22.70;69.00;;;;;;5040944;28;87543;-42
2022/08/24 12:57:43;;;;;;;;;;;22.70;69.00;;;;;;5039978;28;87154;-41
2022/08/24 13:00:13;;;;;;;;;;;22.70;69.00;;;;;;5039059;28;87937;-42
2022/08/24 13:02:42;;;;;;;;;;;22.70;69.00;;;;;;5040612;28;88363;-42
2022/08/24 13:05:13;;;;;;;;;;;22.80;68.90;;;;;;5041835;28;88013;-39
2022/08/24 13:07:41;;;;;;;;;;;22.80;69.00;;;;;;5042729;28;86919;-41
2022/08/24 13:10:27;;;;;;;;;;;22.80;69.10;;;;;;5042497;27;89069;-39
2022/08/24 13:13:09;;;;;;;;;;;22.80;69.10;;;;;;5033684;28;87302;-40
2022/08/24 13:15:34;;;;;;;;;;;22.80;69.30;;;;;;5045517;28;87162;-41
2022/08/24 13:18:20;;;;;;;;;;;22.80;69.20;;;;;;5042873;28;86400;-41
2022/08/24 13:20:48;;;;;;;;;;;22.80;69.50;;;;;;5040674;28;87312;-41
2022/08/24 13:23:17;;;;;;;;;;;22.80;70.20;;;;;;5041284;28;87492;-41
2022/08/24 13:25:46;;;;;;;;;;;22.80;69.60;;;;;;5041150;28;90287;-41
2022/08/24 13:28:23;;;;;;;;;;;22.90;70.20;;;;;;5041973;28;87050;-46
2022/08/24 13:31:09;;;;;;;;;;;22.90;70.30;;;;;;5042269;27;87504;-40
2022/08/24 13:33:46;;;;;;;;;;;23.00;69.70;;;;;;5033607;28;87414;-40
2022/08/24 13:36:29;;;;;;;;;;;23.00;68.90;;;;;;5042125;28;86938;-40
2022/08/24 13:38:58;;;;;;;;;;;23.00;68.70;;;;;;5044990;27;87290;-40
2022/08/24 13:41:29;;;;;;;;;;;23.00;68.90;;;;;;5042018;28;87172;-40
2022/08/24 13:44:07;;;;;;;;;;;23.00;68.70;;;;;;5042845;28;87641;-40
2022/08/24 13:46:50;;;;;;;;;;;23.00;68.80;;;;;;5041437;28;89511;-40
2022/08/24 13:49:31;;;;;;;;;;;23.00;68.70;;;;;;5042244;28;87216;-39
2022/08/24 13:52:02;;;;;;;;;;;23.10;69.20;;;;;;5040018;28;90593;-40
2022/08/24 13:54:36;;;;;;;;;;;23.10;69.40;;;;;;5041624;28;88068;-40
2022/08/24 13:57:07;;;;;;;;;;;23.00;69.10;;;;;;5041870;28;86957;-39
2022/08/24 13:59:57;;;;;;;;;;;23.00;68.90;;;;;;5041789;27;89135;-40
2022/08/24 14:02:49;;;;;;;;;;;23.00;69.00;;;;;;5044256;28;88208;-39
2022/08/24 14:05:31;;;;;;;;;;;23.00;69.00;;;;;;5042208;27;87537;-38
2022/08/24 14:08:02;;;;;;;;;;;23.00;70.90;;;;;;5041315;28;89476;-40
2022/08/24 14:10:46;;;;;;;;;;;23.10;70.80;;;;;;5042318;28;86376;-39
2022/08/24 14:13:31;;;;;;;;;;;23.20;71.50;;;;;;5045167;27;87011;-39
2022/08/24 14:18:54;;;;;;;;;;;23.20;71.40;;;;;;5044534;28;88243;-39
2022/08/24 14:21:21;;;;;;;;;;;23.20;71.30;;;;;;5044633;28;88290;-41
2022/08/24 14:23:55;;;;;;;;;;;23.20;71.20;;;;;;5044900;28;87549;-39
2022/08/24 14:26:32;;;;;;;;;;;23.20;72.10;;;;;;5047906;28;87291;-38
2022/08/24 14:29:19;;;;;;;;;;;23.20;70.10;;;;;;5044425;28;88583;-38
2022/08/24 14:31:53;;;;;;;;;;;23.30;69.70;;;;;;5044894;28;87120;-40
2022/08/24 14:34:25;;;;;;;;;;;23.20;69.40;;;;;;5045095;28;86969;-41
2022/08/24 14:36:58;;;;;;;;;;;23.30;69.00;;;;;;5044703;28;89027;-40
2022/08/24 14:39:43;;;;;;;;;;;23.40;69.10;;;;;;5045125;28;86947;-41
2022/08/24 14:42:14;;;;;;;;;;;23.40;69.00;;;;;;5044933;27;87453;-39
2022/08/24 14:44:46;;;;;;;;;;;23.40;68.60;;;;;;5043847;28;88143;-41
2022/08/24 14:47:11;;;;;;;;;;;23.40;68.60;;;;;;5047688;28;87161;-40
2022/08/24 14:49:40;;;;;;;;;;;23.30;68.50;;;;;;5044232;28;89351;-40